createdAt,value
2018-06-05T00:00:04.927Z,20.15
2018-06-05T00:00:17.326Z,20.15
2018-06-05T00:00:29.823Z,20.15
2018-06-05T00:00:42.262Z,20.15
2018-06-05T00:00:54.697Z,20.15
2018-06-05T00:01:07.156Z,20.15
2018-06-05T00:01:19.608Z,20.15
2018-06-05T00:01:32.012Z,20.15
2018-06-05T00:01:44.431Z,20.15
2018-06-05T00:01:56.839Z,20.15
2018-06-05T00:02:09.237Z,20.15
2018-06-05T00:02:21.640Z,20.15
2018-06-05T00:02:34.065Z,20.15
2018-06-05T00:02:46.479Z,20.15
2018-06-05T00:02:58.901Z,20.15
2018-06-05T00:03:11.308Z,20.15
2018-06-05T00:03:23.689Z,20.15
2018-06-05T00:03:36.092Z,20.15
2018-06-05T00:03:48.474Z,20.15
2018-06-05T00:04:00.867Z,20.15
2018-06-05T00:04:13.267Z,20.15
2018-06-05T00:04:25.653Z,20.15
2018-06-05T00:04:38.042Z,20.15
2018-06-05T00:04:50.441Z,20.15
2018-06-05T00:05:02.843Z,20.15
2018-06-05T00:05:15.296Z,20.15
2018-06-05T00:05:27.678Z,20.78
2018-06-05T00:05:40.096Z,20.78
2018-06-05T00:05:52.488Z,20.78
2018-06-05T00:06:04.917Z,20.78
2018-06-05T00:06:17.310Z,20.78
2018-06-05T00:06:29.725Z,20.78
2018-06-05T00:06:42.117Z,20.78
2018-06-05T00:06:54.531Z,20.78
2018-06-05T00:07:06.961Z,20.78
2018-06-05T00:07:19.360Z,20.78
2018-06-05T00:07:31.806Z,20.78
2018-06-05T00:07:44.204Z,20.78
2018-06-05T00:07:56.604Z,20.78
2018-06-05T00:08:09.065Z,20.78
2018-06-05T00:08:21.484Z,20.78
2018-06-05T00:08:33.883Z,20.78
2018-06-05T00:08:46.283Z,20.78
2018-06-05T00:08:58.687Z,20.78
2018-06-05T00:09:11.059Z,20.78
2018-06-05T00:09:23.471Z,20.78
2018-06-05T00:09:35.870Z,20.78
2018-06-05T00:09:48.261Z,20.78
2018-06-05T00:10:00.660Z,20.78
2018-06-05T00:10:13.069Z,20.78
2018-06-05T00:10:25.473Z,20.78
2018-06-05T00:10:37.886Z,20.78
2018-06-05T00:10:50.274Z,20.78
2018-06-05T00:11:02.713Z,20.78
2018-06-05T00:11:15.145Z,20.78
2018-06-05T00:11:27.544Z,20.78
2018-06-05T00:11:39.930Z,20.78
2018-06-05T00:11:52.379Z,20.78
2018-06-05T00:12:04.783Z,20.78
2018-06-05T00:12:17.226Z,20.78
2018-06-05T00:12:29.658Z,20.78
2018-06-05T00:12:42.045Z,20.78
2018-06-05T00:12:54.625Z,20.78
2018-06-05T00:13:07.037Z,20.78
2018-06-05T00:13:19.431Z,20.78
2018-06-05T00:13:31.812Z,20.78
2018-06-05T00:13:44.208Z,20.78
2018-06-05T00:13:56.648Z,20.78
2018-06-05T00:14:09.057Z,20.78
2018-06-05T00:14:21.455Z,20.78
2018-06-05T00:14:33.847Z,20.78
2018-06-05T00:14:46.255Z,20.78
2018-06-05T00:14:58.651Z,20.78
2018-06-05T00:15:11.047Z,20.78
2018-06-05T00:15:23.445Z,21.17
2018-06-05T00:15:35.829Z,21.17
2018-06-05T00:15:48.222Z,21.17
2018-06-05T00:16:00.619Z,21.17
2018-06-05T00:16:13.023Z,21.17
2018-06-05T00:16:25.438Z,21.17
2018-06-05T00:16:37.829Z,21.17
2018-06-05T00:16:50.233Z,21.17
2018-06-05T00:17:02.642Z,21.17
2018-06-05T00:17:15.039Z,21.17
2018-06-05T00:17:27.431Z,21.17
2018-06-05T00:17:39.929Z,21.17
2018-06-05T00:17:52.381Z,21.17
2018-06-05T00:18:04.792Z,21.17
2018-06-05T00:18:17.200Z,21.17
2018-06-05T00:18:29.601Z,21.17
2018-06-05T00:18:42.010Z,21.17
2018-06-05T00:18:54.435Z,21.17
2018-06-05T00:19:06.861Z,21.17
2018-06-05T00:19:19.281Z,21.17
2018-06-05T00:19:31.678Z,21.17
2018-06-05T00:19:44.086Z,21.17
2018-06-05T00:19:56.481Z,21.17
2018-06-05T00:20:08.890Z,21.17
2018-06-05T00:20:21.301Z,21.17
2018-06-05T00:20:33.701Z,21.17
2018-06-05T00:20:46.089Z,21.17
2018-06-05T00:20:58.493Z,21.17
2018-06-05T00:21:10.899Z,21.17
2018-06-05T00:21:23.286Z,21.17
2018-06-05T00:21:35.680Z,21.17
2018-06-05T00:21:48.100Z,21.17
2018-06-05T00:22:00.498Z,21.17
2018-06-05T00:22:12.930Z,21.17
2018-06-05T00:22:25.320Z,21.17
2018-06-05T00:22:37.730Z,21.17
2018-06-05T00:22:50.132Z,21.17
2018-06-05T00:23:02.531Z,21.17
2018-06-05T00:23:14.922Z,21.17
2018-06-05T00:23:27.359Z,21.17
2018-06-05T00:23:39.768Z,21.17
2018-06-05T00:23:52.160Z,21.17
2018-06-05T00:24:04.542Z,21.17
2018-06-05T00:24:16.945Z,21.17
2018-06-05T00:24:29.347Z,21.17
2018-06-05T00:24:41.755Z,21.17
2018-06-05T00:24:54.146Z,21.17
2018-06-05T00:25:06.523Z,21.17
2018-06-05T00:25:18.939Z,20.06
2018-06-05T00:25:31.338Z,20.06
2018-06-05T00:25:43.729Z,20.06
2018-06-05T00:25:56.144Z,20.06
2018-06-05T00:26:08.538Z,20.06
2018-06-05T00:26:20.955Z,20.06
2018-06-05T00:26:33.386Z,20.06
2018-06-05T00:26:45.786Z,20.06
2018-06-05T00:26:58.635Z,20.06
2018-06-05T00:27:11.280Z,20.06
2018-06-05T00:27:23.688Z,20.06
2018-06-05T00:27:36.085Z,20.06
2018-06-05T00:27:48.559Z,20.06
2018-06-05T00:28:00.983Z,20.06
2018-06-05T00:28:13.408Z,20.06
2018-06-05T00:28:25.827Z,20.06
2018-06-05T00:28:38.227Z,20.06
2018-06-05T00:28:50.630Z,20.06
2018-06-05T00:29:03.015Z,20.06
2018-06-05T00:29:15.412Z,20.06
2018-06-05T00:29:27.808Z,20.06
2018-06-05T00:29:40.198Z,20.06
2018-06-05T00:29:52.603Z,20.06
2018-06-05T00:30:05.017Z,20.06
2018-06-05T00:30:17.448Z,20.06
2018-06-05T00:30:29.835Z,20.06
2018-06-05T00:30:42.229Z,20.06
2018-06-05T00:30:54.642Z,20.06
2018-06-05T00:31:07.200Z,20.06
2018-06-05T00:31:19.615Z,20.06
2018-06-05T00:31:32.009Z,20.06
2018-06-05T00:31:44.412Z,20.06
2018-06-05T00:31:56.804Z,20.06
2018-06-05T00:32:09.192Z,20.06
2018-06-05T00:32:21.576Z,20.06
2018-06-05T00:32:33.979Z,20.06
2018-06-05T00:32:46.368Z,20.06
2018-06-05T00:32:58.783Z,20.06
2018-06-05T00:33:11.207Z,20.06
2018-06-05T00:33:23.614Z,20.06
2018-06-05T00:33:35.997Z,20.06
2018-06-05T00:33:48.409Z,20.06
2018-06-05T00:34:00.809Z,20.06
2018-06-05T00:34:13.218Z,20.06
2018-06-05T00:34:25.649Z,20.06
2018-06-05T00:34:38.029Z,20.06
2018-06-05T00:34:50.438Z,20.06
2018-06-05T00:35:03.050Z,20.06
2018-06-05T00:35:15.458Z,20.06
2018-06-05T00:35:27.884Z,19.64
2018-06-05T00:35:40.346Z,19.64
2018-06-05T00:35:52.734Z,19.64
2018-06-05T00:36:05.135Z,19.64
2018-06-05T00:36:17.522Z,19.64
2018-06-05T00:36:29.914Z,19.64
2018-06-05T00:36:42.303Z,19.64
2018-06-05T00:36:54.695Z,19.64
2018-06-05T00:37:07.125Z,19.64
2018-06-05T00:37:19.693Z,19.64
2018-06-05T00:37:32.076Z,19.64
2018-06-05T00:37:44.477Z,19.64
2018-06-05T00:37:56.889Z,19.64
2018-06-05T00:38:09.308Z,19.64
2018-06-05T00:38:21.736Z,19.64
2018-06-05T00:38:34.144Z,19.64
2018-06-05T00:38:46.559Z,19.64
2018-06-05T00:38:58.951Z,19.64
2018-06-05T00:39:11.353Z,19.64
2018-06-05T00:39:23.844Z,19.64
2018-06-05T00:39:36.224Z,19.64
2018-06-05T00:39:48.604Z,19.64
2018-06-05T00:40:01.015Z,19.64
2018-06-05T00:40:13.413Z,19.64
2018-06-05T00:40:25.830Z,19.64
2018-06-05T00:40:38.253Z,19.64
2018-06-05T00:40:50.653Z,19.64
2018-06-05T00:41:03.043Z,19.64
2018-06-05T00:41:15.539Z,19.64
2018-06-05T00:41:27.924Z,19.64
2018-06-05T00:41:40.314Z,19.64
2018-06-05T00:41:52.689Z,19.64
2018-06-05T00:42:05.100Z,19.64
2018-06-05T00:42:17.500Z,19.64
2018-06-05T00:42:29.910Z,19.64
2018-06-05T00:42:42.316Z,19.64
2018-06-05T00:42:54.708Z,19.64
2018-06-05T00:43:07.127Z,19.64
2018-06-05T00:43:19.554Z,19.64
2018-06-05T00:43:31.959Z,19.64
2018-06-05T00:43:44.350Z,19.64
2018-06-05T00:43:56.873Z,19.64
2018-06-05T00:44:09.288Z,19.64
2018-06-05T00:44:21.706Z,19.64
2018-06-05T00:44:34.282Z,19.64
2018-06-05T00:44:46.680Z,19.64
2018-06-05T00:44:59.091Z,19.64
2018-06-05T00:45:11.519Z,19.64
2018-06-05T00:45:23.922Z,22.9
2018-06-05T00:45:36.369Z,22.9
2018-06-05T00:45:48.778Z,22.9
2018-06-05T00:46:01.174Z,22.9
2018-06-05T00:46:13.616Z,22.9
2018-06-05T00:46:26.027Z,22.9
2018-06-05T00:46:38.630Z,22.9
2018-06-05T00:46:51.033Z,22.9
2018-06-05T00:47:03.434Z,22.9
2018-06-05T00:47:15.866Z,22.9
2018-06-05T00:47:28.294Z,22.9
2018-06-05T00:47:40.722Z,22.9
2018-06-05T00:47:53.143Z,22.9
2018-06-05T00:48:05.577Z,22.9
2018-06-05T00:48:17.975Z,22.9
2018-06-05T00:48:30.523Z,22.9
2018-06-05T00:48:42.960Z,22.9
2018-06-05T00:48:55.383Z,22.9
2018-06-05T00:49:07.787Z,22.9
2018-06-05T00:49:20.184Z,22.9
2018-06-05T00:49:32.610Z,22.9
2018-06-05T00:49:45.031Z,22.9
2018-06-05T00:49:57.434Z,22.9
2018-06-05T00:50:09.853Z,22.9
2018-06-05T00:50:22.275Z,22.9
2018-06-05T00:50:34.680Z,22.9
2018-06-05T00:50:47.081Z,22.9
2018-06-05T00:50:59.492Z,22.9
2018-06-05T00:51:11.897Z,22.9
2018-06-05T00:51:24.295Z,22.9
2018-06-05T00:51:36.701Z,22.9
2018-06-05T00:51:49.097Z,22.9
2018-06-05T00:52:01.509Z,22.9
2018-06-05T00:52:13.938Z,22.9
2018-06-05T00:52:26.337Z,22.9
2018-06-05T00:52:38.723Z,22.9
2018-06-05T00:52:51.130Z,22.9
2018-06-05T00:53:03.534Z,22.9
2018-06-05T00:53:15.944Z,22.9
2018-06-05T00:53:28.368Z,22.9
2018-06-05T00:53:40.775Z,22.9
2018-06-05T00:53:53.169Z,22.9
2018-06-05T00:54:05.562Z,22.9
2018-06-05T00:54:17.943Z,22.9
2018-06-05T00:54:30.342Z,22.9
2018-06-05T00:54:42.750Z,22.9
2018-06-05T00:54:55.152Z,22.9
2018-06-05T00:55:07.585Z,22.9
2018-06-05T00:55:19.983Z,21.9
2018-06-05T00:55:32.368Z,21.9
2018-06-05T00:55:44.760Z,21.9
2018-06-05T00:55:57.161Z,21.9
2018-06-05T00:56:09.544Z,21.9
2018-06-05T00:56:21.952Z,21.9
2018-06-05T00:56:34.378Z,21.9
2018-06-05T00:56:46.808Z,21.9
2018-06-05T00:56:59.212Z,21.9
2018-06-05T00:57:11.625Z,21.9
2018-06-05T00:57:24.017Z,21.9
2018-06-05T00:57:36.411Z,21.9
2018-06-05T00:57:48.832Z,21.9
2018-06-05T00:58:01.248Z,21.9
2018-06-05T00:58:13.632Z,21.9
2018-06-05T00:58:26.016Z,21.9
2018-06-05T00:58:38.420Z,21.9
2018-06-05T00:58:50.816Z,21.9
2018-06-05T00:59:03.243Z,21.9
2018-06-05T00:59:15.644Z,21.9
2018-06-05T00:59:28.073Z,21.9
2018-06-05T00:59:40.483Z,21.9
2018-06-05T00:59:53.028Z,21.9
2018-06-05T01:00:05.424Z,21.9
2018-06-05T01:00:17.849Z,21.9
2018-06-05T01:00:30.342Z,21.9
2018-06-05T01:00:42.815Z,21.9
2018-06-05T01:00:55.248Z,21.9
2018-06-05T01:01:07.688Z,21.9
2018-06-05T01:01:20.115Z,21.9
2018-06-05T01:01:32.514Z,21.9
2018-06-05T01:01:44.958Z,21.9
2018-06-05T01:01:57.364Z,21.9
2018-06-05T01:02:09.789Z,21.9
2018-06-05T01:02:22.192Z,21.9
2018-06-05T01:02:34.710Z,21.9
2018-06-05T01:02:47.115Z,21.9
2018-06-05T01:02:59.580Z,21.9
2018-06-05T01:03:11.993Z,21.9
2018-06-05T01:03:24.419Z,21.9
2018-06-05T01:03:36.820Z,21.9
2018-06-05T01:03:49.221Z,21.9
2018-06-05T01:04:01.629Z,21.9
2018-06-05T01:04:14.026Z,21.9
2018-06-05T01:04:26.400Z,21.9
2018-06-05T01:04:38.792Z,21.9
2018-06-05T01:04:51.180Z,21.9
2018-06-05T01:05:03.633Z,21.9
2018-06-05T01:05:16.034Z,21.9
2018-06-05T01:05:28.439Z,23.87
2018-06-05T01:05:40.833Z,23.87
2018-06-05T01:05:53.240Z,23.87
2018-06-05T01:06:05.640Z,23.87
2018-06-05T01:06:18.040Z,23.87
2018-06-05T01:06:30.474Z,23.87
2018-06-05T01:06:42.867Z,23.87
2018-06-05T01:06:55.242Z,23.87
2018-06-05T01:07:07.656Z,23.87
2018-06-05T01:07:20.073Z,23.87
2018-06-05T01:07:32.558Z,23.87
2018-06-05T01:07:44.973Z,23.87
2018-06-05T01:07:57.348Z,23.87
2018-06-05T01:08:09.830Z,23.87
2018-06-05T01:08:22.230Z,23.87
2018-06-05T01:08:34.626Z,23.87
2018-06-05T01:08:47.031Z,23.87
2018-06-05T01:08:59.433Z,23.87
2018-06-05T01:09:11.836Z,23.87
2018-06-05T01:09:24.234Z,23.87
2018-06-05T01:09:36.644Z,23.87
2018-06-05T01:09:49.035Z,23.87
2018-06-05T01:10:01.436Z,23.87
2018-06-05T01:10:13.860Z,23.87
2018-06-05T01:10:26.268Z,23.87
2018-06-05T01:10:38.655Z,23.87
2018-06-05T01:10:51.064Z,23.87
2018-06-05T01:11:03.490Z,23.87
2018-06-05T01:11:15.947Z,23.87
2018-06-05T01:11:28.359Z,23.87
2018-06-05T01:11:40.762Z,23.87
2018-06-05T01:11:53.158Z,23.87
2018-06-05T01:12:05.573Z,23.87
2018-06-05T01:12:17.979Z,23.87
2018-06-05T01:12:30.403Z,23.87
2018-06-05T01:12:42.813Z,23.87
2018-06-05T01:12:55.567Z,23.87
2018-06-05T01:13:07.970Z,23.87
2018-06-05T01:13:20.384Z,23.87
2018-06-05T01:13:32.777Z,23.87
2018-06-05T01:13:45.181Z,23.87
2018-06-05T01:13:57.574Z,23.87
2018-06-05T01:14:09.996Z,23.87
2018-06-05T01:14:22.408Z,23.87
2018-06-05T01:14:34.788Z,23.87
2018-06-05T01:14:47.187Z,23.87
2018-06-05T01:14:59.608Z,23.87
2018-06-05T01:15:12.009Z,23.87
2018-06-05T01:15:24.400Z,21.35
2018-06-05T01:15:36.806Z,21.35
2018-06-05T01:15:49.197Z,21.35
2018-06-05T01:16:01.589Z,21.35
2018-06-05T01:16:13.982Z,21.35
2018-06-05T01:16:26.507Z,21.35
2018-06-05T01:16:38.895Z,21.35
2018-06-05T01:16:51.322Z,21.35
2018-06-05T01:17:03.715Z,21.35
2018-06-05T01:17:16.111Z,21.35
2018-06-05T01:17:28.516Z,21.35
2018-06-05T01:17:41.000Z,21.35
2018-06-05T01:17:53.412Z,21.35
2018-06-05T01:18:05.820Z,21.35
2018-06-05T01:18:18.254Z,21.35
2018-06-05T01:18:30.642Z,21.35
2018-06-05T01:18:43.043Z,21.35
2018-06-05T01:18:55.464Z,21.35
2018-06-05T01:19:07.883Z,21.35
2018-06-05T01:19:20.317Z,21.35
2018-06-05T01:19:32.712Z,21.35
2018-06-05T01:19:45.102Z,21.35
2018-06-05T01:19:57.495Z,21.35
2018-06-05T01:20:09.895Z,21.35
2018-06-05T01:20:22.291Z,21.35
2018-06-05T01:20:34.748Z,21.35
2018-06-05T01:20:47.141Z,21.35
2018-06-05T01:20:59.535Z,21.35
2018-06-05T01:21:11.929Z,21.35
2018-06-05T01:21:24.335Z,21.35
2018-06-05T01:21:36.741Z,21.35
2018-06-05T01:21:49.157Z,21.35
2018-06-05T01:22:01.559Z,21.35
2018-06-05T01:22:13.955Z,21.35
2018-06-05T01:22:26.345Z,21.35
2018-06-05T01:22:38.807Z,21.35
2018-06-05T01:22:51.209Z,21.35
2018-06-05T01:23:03.644Z,21.35
2018-06-05T01:23:16.088Z,21.35
2018-06-05T01:23:28.492Z,21.35
2018-06-05T01:23:40.898Z,21.35
2018-06-05T01:23:53.306Z,21.35
2018-06-05T01:24:05.719Z,21.35
2018-06-05T01:24:18.121Z,21.35
2018-06-05T01:24:30.516Z,21.35
2018-06-05T01:24:42.931Z,21.35
2018-06-05T01:24:55.337Z,21.35
2018-06-05T01:25:07.732Z,21.35
2018-06-05T01:25:20.232Z,21.35
2018-06-05T01:25:32.621Z,23.75
2018-06-05T01:25:45.018Z,23.75
2018-06-05T01:25:57.459Z,23.75
2018-06-05T01:26:09.876Z,23.75
2018-06-05T01:26:22.259Z,23.75
2018-06-05T01:26:34.674Z,23.75
2018-06-05T01:26:47.070Z,23.75
2018-06-05T01:26:59.493Z,23.75
2018-06-05T01:27:11.883Z,23.75
2018-06-05T01:27:24.291Z,23.75
2018-06-05T01:27:36.687Z,23.75
2018-06-05T01:27:49.072Z,23.75
2018-06-05T01:28:01.468Z,23.75
2018-06-05T01:28:13.850Z,23.75
2018-06-05T01:28:26.237Z,23.75
2018-06-05T01:28:38.654Z,23.75
2018-06-05T01:28:51.061Z,23.75
2018-06-05T01:29:03.448Z,23.75
2018-06-05T01:29:15.854Z,23.75
2018-06-05T01:29:28.248Z,23.75
2018-06-05T01:29:40.636Z,23.75
2018-06-05T01:29:53.042Z,23.75
2018-06-05T01:30:05.437Z,23.75
2018-06-05T01:30:17.889Z,23.75
2018-06-05T01:30:30.317Z,23.75
2018-06-05T01:30:42.731Z,23.75
2018-06-05T01:30:55.116Z,23.75
2018-06-05T01:31:07.648Z,23.75
2018-06-05T01:31:20.050Z,23.75
2018-06-05T01:31:32.474Z,23.75
2018-06-05T01:31:44.860Z,23.75
2018-06-05T01:31:57.257Z,23.75
2018-06-05T01:32:09.646Z,23.75
2018-06-05T01:32:22.062Z,23.75
2018-06-05T01:32:34.484Z,23.75
2018-06-05T01:32:46.913Z,23.75
2018-06-05T01:32:59.313Z,23.75
2018-06-05T01:33:11.767Z,23.75
2018-06-05T01:33:24.152Z,23.75
2018-06-05T01:33:36.550Z,23.75
2018-06-05T01:33:48.948Z,23.75
2018-06-05T01:34:01.392Z,23.75
2018-06-05T01:34:13.804Z,23.75
2018-06-05T01:34:26.179Z,23.75
2018-06-05T01:34:38.580Z,23.75
2018-06-05T01:34:50.966Z,23.75
2018-06-05T01:35:04.039Z,23.75
2018-06-05T01:35:16.453Z,23.75
2018-06-05T01:35:28.860Z,23.13
2018-06-05T01:35:41.258Z,23.13
2018-06-05T01:35:53.672Z,23.13
2018-06-05T01:36:06.060Z,23.13
2018-06-05T01:36:18.490Z,23.13
2018-06-05T01:36:30.905Z,23.13
2018-06-05T01:36:43.314Z,23.13
2018-06-05T01:36:55.708Z,23.13
2018-06-05T01:37:08.101Z,23.13
2018-06-05T01:37:20.510Z,23.13
2018-06-05T01:37:32.914Z,23.13
2018-06-05T01:37:45.315Z,23.13
2018-06-05T01:37:57.725Z,23.13
2018-06-05T01:38:10.096Z,23.13
2018-06-05T01:38:22.510Z,23.13
2018-06-05T01:38:34.935Z,23.13
2018-06-05T01:38:47.362Z,23.13
2018-06-05T01:38:59.776Z,23.13
2018-06-05T01:39:12.191Z,23.13
2018-06-05T01:39:24.754Z,23.13
2018-06-05T01:39:37.160Z,23.13
2018-06-05T01:39:49.557Z,23.13
2018-06-05T01:40:01.991Z,23.13
2018-06-05T01:40:14.402Z,23.13
2018-06-05T01:40:26.797Z,23.13
2018-06-05T01:40:39.177Z,23.13
2018-06-05T01:40:51.581Z,23.13
2018-06-05T01:41:03.989Z,23.13
2018-06-05T01:41:16.392Z,23.13
2018-06-05T01:41:28.813Z,23.13
2018-06-05T01:41:41.227Z,23.13
2018-06-05T01:41:53.635Z,23.13
2018-06-05T01:42:06.041Z,23.13
2018-06-05T01:42:18.414Z,23.13
2018-06-05T01:42:30.814Z,23.13
2018-06-05T01:42:43.195Z,23.13
2018-06-05T01:42:55.594Z,23.13
2018-06-05T01:43:08.012Z,23.13
2018-06-05T01:43:20.392Z,23.13
2018-06-05T01:43:32.780Z,23.13
2018-06-05T01:43:45.171Z,23.13
2018-06-05T01:43:57.573Z,23.13
2018-06-05T01:44:09.977Z,23.13
2018-06-05T01:44:22.372Z,23.13
2018-06-05T01:44:34.946Z,23.13
2018-06-05T01:44:47.524Z,23.13
2018-06-05T01:44:59.946Z,23.13
2018-06-05T01:45:12.600Z,23.13
2018-06-05T01:45:25.016Z,24.25
2018-06-05T01:45:37.422Z,24.25
2018-06-05T01:45:49.816Z,24.25
2018-06-05T01:46:02.216Z,24.25
2018-06-05T01:46:14.621Z,24.25
2018-06-05T01:46:27.047Z,24.25
2018-06-05T01:46:39.461Z,24.25
2018-06-05T01:46:51.884Z,24.25
2018-06-05T01:47:04.293Z,24.25
2018-06-05T01:47:16.831Z,24.25
2018-06-05T01:47:29.260Z,24.25
2018-06-05T01:47:41.668Z,24.25
2018-06-05T01:47:54.075Z,24.25
2018-06-05T01:48:06.508Z,24.25
2018-06-05T01:48:18.948Z,24.25
2018-06-05T01:48:31.481Z,24.25
2018-06-05T01:48:43.872Z,24.25
2018-06-05T01:48:56.274Z,24.25
2018-06-05T01:49:08.731Z,24.25
2018-06-05T01:49:21.137Z,24.25
2018-06-05T01:49:33.553Z,24.25
2018-06-05T01:49:45.975Z,24.25
2018-06-05T01:49:58.395Z,24.25
2018-06-05T01:50:10.852Z,24.25
2018-06-05T01:50:23.248Z,24.25
2018-06-05T01:50:35.647Z,24.25
2018-06-05T01:50:48.051Z,24.25
2018-06-05T01:51:00.465Z,24.25
2018-06-05T01:51:12.876Z,24.25
2018-06-05T01:51:25.307Z,24.25
2018-06-05T01:51:37.763Z,24.25
2018-06-05T01:51:50.162Z,24.25
2018-06-05T01:52:02.585Z,24.25
2018-06-05T01:52:15.043Z,24.25
2018-06-05T01:52:27.489Z,24.25
2018-06-05T01:52:39.919Z,24.25
2018-06-05T01:52:52.350Z,24.25
2018-06-05T01:53:04.771Z,24.25
2018-06-05T01:53:17.183Z,24.25
2018-06-05T01:53:29.591Z,24.25
2018-06-05T01:53:42.013Z,24.25
2018-06-05T01:53:54.429Z,24.25
2018-06-05T01:54:06.829Z,24.25
2018-06-05T01:54:19.222Z,24.25
2018-06-05T01:54:31.654Z,24.25
2018-06-05T01:54:44.051Z,24.25
2018-06-05T01:54:56.455Z,24.25
2018-06-05T01:55:08.866Z,24.25
2018-06-05T01:55:21.264Z,24.25
2018-06-05T01:55:33.682Z,22.33
2018-06-05T01:55:46.073Z,22.33
2018-06-05T01:55:58.479Z,22.33
2018-06-05T01:56:10.874Z,22.33
2018-06-05T01:56:23.271Z,22.33
2018-06-05T01:56:35.684Z,22.33
2018-06-05T01:56:48.130Z,22.33
2018-06-05T01:57:00.566Z,22.33
2018-06-05T01:57:12.989Z,22.33
2018-06-05T01:57:25.446Z,22.33
2018-06-05T01:57:37.855Z,22.33
2018-06-05T01:57:50.302Z,22.33
2018-06-05T01:58:02.703Z,22.33
2018-06-05T01:58:15.098Z,22.33
2018-06-05T01:58:27.506Z,22.33
2018-06-05T01:58:39.919Z,22.33
2018-06-05T01:58:52.337Z,22.33
2018-06-05T01:59:04.746Z,22.33
2018-06-05T01:59:17.137Z,22.33
2018-06-05T01:59:29.527Z,22.33
2018-06-05T01:59:41.920Z,22.33
2018-06-05T01:59:54.412Z,22.33
2018-06-05T02:00:06.865Z,22.33
2018-06-05T02:00:19.261Z,22.33
2018-06-05T02:00:31.878Z,22.33
2018-06-05T02:00:44.293Z,22.33
2018-06-05T02:00:56.742Z,22.33
2018-06-05T02:01:09.191Z,22.33
2018-06-05T02:01:21.629Z,22.33
2018-06-05T02:01:34.068Z,22.33
2018-06-05T02:01:46.522Z,22.33
2018-06-05T02:01:58.947Z,22.33
2018-06-05T02:02:11.361Z,22.33
2018-06-05T02:02:23.774Z,22.33
2018-06-05T02:02:36.178Z,22.33
2018-06-05T02:02:48.585Z,22.33
2018-06-05T02:03:01.010Z,22.33
2018-06-05T02:03:13.406Z,22.33
2018-06-05T02:03:25.805Z,22.33
2018-06-05T02:03:38.220Z,22.33
2018-06-05T02:03:50.613Z,22.33
2018-06-05T02:04:03.002Z,22.33
2018-06-05T02:04:15.437Z,22.33
2018-06-05T02:04:27.870Z,22.33
2018-06-05T02:04:40.278Z,22.33
2018-06-05T02:04:52.692Z,22.33
2018-06-05T02:05:05.102Z,22.33
2018-06-05T02:05:17.479Z,22.33
2018-06-05T02:05:29.901Z,22.5
2018-06-05T02:05:42.296Z,22.5
2018-06-05T02:05:54.698Z,22.5
2018-06-05T02:06:07.147Z,22.5
2018-06-05T02:06:19.557Z,22.5
2018-06-05T02:06:31.951Z,22.5
2018-06-05T02:06:44.358Z,22.5
2018-06-05T02:06:56.755Z,22.5
2018-06-05T02:07:09.169Z,22.5
2018-06-05T02:07:21.580Z,22.5
2018-06-05T02:07:33.998Z,22.5
2018-06-05T02:07:46.387Z,22.5
2018-06-05T02:07:58.777Z,22.5
2018-06-05T02:08:11.182Z,22.5
2018-06-05T02:08:23.605Z,22.5
2018-06-05T02:08:36.055Z,22.5
2018-06-05T02:08:48.445Z,22.5
2018-06-05T02:09:00.843Z,22.5
2018-06-05T02:09:13.235Z,22.5
2018-06-05T02:09:25.635Z,22.5
2018-06-05T02:09:38.033Z,22.5
2018-06-05T02:09:50.423Z,22.5
2018-06-05T02:10:02.809Z,22.5
2018-06-05T02:10:15.216Z,22.5
2018-06-05T02:10:27.730Z,22.5
2018-06-05T02:10:40.116Z,22.5
2018-06-05T02:10:52.507Z,22.5
2018-06-05T02:11:04.916Z,22.5
2018-06-05T02:11:17.321Z,22.5
2018-06-05T02:11:29.711Z,22.5
2018-06-05T02:11:42.130Z,22.5
2018-06-05T02:11:54.517Z,22.5
2018-06-05T02:12:06.914Z,22.5
2018-06-05T02:12:19.316Z,22.5
2018-06-05T02:12:31.714Z,22.5
2018-06-05T02:12:44.123Z,22.5
2018-06-05T02:12:56.750Z,22.5
2018-06-05T02:13:09.142Z,22.5
2018-06-05T02:13:21.566Z,22.5
2018-06-05T02:13:33.972Z,22.5
2018-06-05T02:13:46.392Z,22.5
2018-06-05T02:13:58.814Z,22.5
2018-06-05T02:14:11.224Z,22.5
2018-06-05T02:14:23.614Z,22.5
2018-06-05T02:14:36.007Z,22.5
2018-06-05T02:14:48.409Z,22.5
2018-06-05T02:15:00.828Z,22.5
2018-06-05T02:15:13.236Z,22.5
2018-06-05T02:15:25.774Z,22.5
2018-06-05T02:15:38.184Z,22.5
2018-06-05T02:15:50.612Z,22.5
2018-06-05T02:16:03.042Z,22.5
2018-06-05T02:16:15.446Z,22.5
2018-06-05T02:16:27.846Z,22.5
2018-06-05T02:16:40.251Z,22.5
2018-06-05T02:16:52.648Z,22.5
2018-06-05T02:17:05.061Z,22.5
2018-06-05T02:17:17.456Z,22.5
2018-06-05T02:17:29.856Z,22.5
2018-06-05T02:17:42.417Z,22.5
2018-06-05T02:17:54.828Z,22.5
2018-06-05T02:18:07.228Z,22.5
2018-06-05T02:18:19.622Z,22.5
2018-06-05T02:18:32.047Z,22.5
2018-06-05T02:18:44.432Z,22.5
2018-06-05T02:18:56.827Z,22.5
2018-06-05T02:19:09.252Z,22.5
2018-06-05T02:19:21.665Z,22.5
2018-06-05T02:19:34.065Z,22.5
2018-06-05T02:19:46.470Z,22.5
2018-06-05T02:19:58.871Z,22.5
2018-06-05T02:20:11.303Z,22.5
2018-06-05T02:20:23.703Z,22.5
2018-06-05T02:20:36.090Z,22.5
2018-06-05T02:20:48.493Z,22.5
2018-06-05T02:21:00.937Z,22.5
2018-06-05T02:21:13.321Z,22.5
2018-06-05T02:21:25.706Z,22.5
2018-06-05T02:21:38.085Z,22.5
2018-06-05T02:21:50.509Z,22.5
2018-06-05T02:22:02.924Z,22.5
2018-06-05T02:22:15.326Z,22.5
2018-06-05T02:22:27.727Z,22.5
2018-06-05T02:22:40.154Z,22.5
2018-06-05T02:22:52.553Z,22.5
2018-06-05T02:23:04.971Z,22.5
2018-06-05T02:23:17.388Z,22.5
2018-06-05T02:23:29.825Z,22.5
2018-06-05T02:23:42.218Z,22.5
2018-06-05T02:23:54.628Z,22.5
2018-06-05T02:24:07.015Z,22.5
2018-06-05T02:24:19.409Z,22.5
2018-06-05T02:24:31.805Z,22.5
2018-06-05T02:24:44.202Z,22.5
2018-06-05T02:24:56.588Z,22.5
2018-06-05T02:25:08.974Z,22.5
2018-06-05T02:25:21.367Z,22.5
2018-06-05T02:25:33.772Z,19.8
2018-06-05T02:25:46.179Z,19.8
2018-06-05T02:25:58.611Z,19.8
2018-06-05T02:26:11.038Z,19.8
2018-06-05T02:26:23.435Z,19.8
2018-06-05T02:26:35.818Z,19.8
2018-06-05T02:26:48.233Z,19.8
2018-06-05T02:27:00.635Z,19.8
2018-06-05T02:27:13.050Z,19.8
2018-06-05T02:27:25.482Z,19.8
2018-06-05T02:27:37.871Z,19.8
2018-06-05T02:27:50.286Z,19.8
2018-06-05T02:28:02.702Z,19.8
2018-06-05T02:28:15.142Z,19.8
2018-06-05T02:28:27.535Z,19.8
2018-06-05T02:28:39.941Z,19.8
2018-06-05T02:28:52.337Z,19.8
2018-06-05T02:29:04.761Z,19.8
2018-06-05T02:29:17.192Z,19.8
2018-06-05T02:29:29.618Z,19.8
2018-06-05T02:29:42.018Z,19.8
2018-06-05T02:29:54.412Z,19.8
2018-06-05T02:30:06.963Z,19.8
2018-06-05T02:30:19.387Z,19.8
2018-06-05T02:30:31.803Z,19.8
2018-06-05T02:30:44.212Z,19.8
2018-06-05T02:30:56.646Z,19.8
2018-06-05T02:31:09.241Z,19.8
2018-06-05T02:31:21.716Z,19.8
2018-06-05T02:31:34.151Z,19.8
2018-06-05T02:31:46.540Z,19.8
2018-06-05T02:31:58.978Z,19.8
2018-06-05T02:32:11.391Z,19.8
2018-06-05T02:32:23.820Z,19.8
2018-06-05T02:32:36.417Z,19.8
2018-06-05T02:32:48.831Z,19.8
2018-06-05T02:33:01.287Z,19.8
2018-06-05T02:33:13.745Z,19.8
2018-06-05T02:33:26.172Z,19.8
2018-06-05T02:33:38.599Z,19.8
2018-06-05T02:33:51.026Z,19.8
2018-06-05T02:34:03.468Z,19.8
2018-06-05T02:34:16.220Z,19.8
2018-06-05T02:34:28.905Z,19.8
2018-06-05T02:34:41.329Z,19.8
2018-06-05T02:34:53.740Z,19.8
2018-06-05T02:35:06.357Z,19.8
2018-06-05T02:35:18.778Z,19.8
2018-06-05T02:35:31.234Z,20.91
2018-06-05T02:35:43.678Z,20.91
2018-06-05T02:35:56.107Z,20.91
2018-06-05T02:36:08.555Z,20.91
2018-06-05T02:36:21.008Z,20.91
2018-06-05T02:36:33.426Z,20.91
2018-06-05T02:36:45.860Z,20.91
2018-06-05T02:36:58.316Z,20.91
2018-06-05T02:37:10.785Z,20.91
2018-06-05T02:37:23.256Z,20.91
2018-06-05T02:37:35.676Z,20.91
2018-06-05T02:37:48.100Z,20.91
2018-06-05T02:38:00.521Z,20.91
2018-06-05T02:38:12.933Z,20.91
2018-06-05T02:38:25.347Z,20.91
2018-06-05T02:38:37.790Z,20.91
2018-06-05T02:38:50.258Z,20.91
2018-06-05T02:39:02.716Z,20.91
2018-06-05T02:39:15.151Z,20.91
2018-06-05T02:39:27.706Z,20.91
2018-06-05T02:39:40.126Z,20.91
2018-06-05T02:39:52.535Z,20.91
2018-06-05T02:40:04.967Z,20.91
2018-06-05T02:40:17.401Z,20.91
2018-06-05T02:40:29.885Z,20.91
2018-06-05T02:40:42.348Z,20.91
2018-06-05T02:40:54.795Z,20.91
2018-06-05T02:41:07.241Z,20.91
2018-06-05T02:41:19.686Z,20.91
2018-06-05T02:41:32.099Z,20.91